East Poestenkill, New York
Current Conditions -  °F | °C
As of 2:51 PM on Saturday 25 Oct 2014 (Local Time) from KALB Reporting Station
Broken Clouds Broken Clouds  
Wind Chill: 61°   Ceiling: 25000
Heat Index: 61°   Visibility: 10mi
Dew Point: 46°   Wind: 7mph
Humidity: 58%   Direction: 180°S
Pressure: 29.64"   Gusts: NA
Location:  42.6497°N, 73.5273°W
Report Text: KALB 251851Z 18006KT 10SM FEW040 SCT060 BKN250 16/08 A2964 RMK AO2 SLP039 T01610078 $
Loading
Personal Weather Stations






























Interactive Weather Map New forecast layout! Learn more

10-Day Weather Forecast

Advertisements
Track Severe Weather on mobile